sensor_id;sensor_type;location;lat;lon;timestamp;pressure;altitude;pressure_sealevel;temperature;humidity
55604;BME280;41468;48.838;9.330;2023-07-31T00:02:01;98372.13;;;17.52;71.27
55604;BME280;41468;48.838;9.330;2023-07-31T00:04:27;98372.66;;;17.40;71.55
55604;BME280;41468;48.838;9.330;2023-07-31T00:06:54;98369.53;;;17.38;71.45
55604;BME280;41468;48.838;9.330;2023-07-31T00:09:21;98371.94;;;17.36;72.13
55604;BME280;41468;48.838;9.330;2023-07-31T00:11:48;98370.72;;;17.37;71.82
55604;BME280;41468;48.838;9.330;2023-07-31T00:14:15;98367.13;;;17.40;71.83
55604;BME280;41468;48.838;9.330;2023-07-31T00:16:41;98362.50;;;17.33;71.85
55604;BME280;41468;48.838;9.330;2023-07-31T00:19:08;98364.56;;;17.26;71.90
55604;BME280;41468;48.838;9.330;2023-07-31T00:21:35;98367.25;;;17.29;71.88
55604;BME280;41468;48.838;9.330;2023-07-31T00:24:02;98367.59;;;17.35;71.66
55604;BME280;41468;48.838;9.330;2023-07-31T00:26:29;98367.19;;;17.36;71.80
55604;BME280;41468;48.838;9.330;2023-07-31T00:29:01;98365.59;;;17.39;71.73
55604;BME280;41468;48.838;9.330;2023-07-31T00:31:40;98367.13;;;17.40;71.73
55604;BME280;41468;48.838;9.330;2023-07-31T00:34:19;98360.44;;;17.41;71.50
55604;BME280;41468;48.838;9.330;2023-07-31T00:36:45;98355.00;;;17.34;71.54
55604;BME280;41468;48.838;9.330;2023-07-31T00:39:12;98361.75;;;17.29;71.99
55604;BME280;41468;48.838;9.330;2023-07-31T00:58:17;98370.78;;;16.92;74.39
55604;BME280;41468;48.838;9.330;2023-07-31T01:00:50;98369.22;;;16.91;74.87
55604;BME280;41468;48.838;9.330;2023-07-31T01:03:23;98367.63;;;16.93;75.36
55604;BME280;41468;48.838;9.330;2023-07-31T01:08:37;98362.75;;;16.63;79.52
55604;BME280;41468;48.838;9.330;2023-07-31T01:11:21;98364.38;;;16.57;79.92
55604;BME280;41468;48.838;9.330;2023-07-31T01:13:56;98361.19;;;16.62;78.51
55604;BME280;41468;48.838;9.330;2023-07-31T01:16:29;98358.00;;;16.67;76.63
55604;BME280;41468;48.838;9.330;2023-07-31T01:19:02;98356.09;;;16.61;77.83
55604;BME280;41468;48.838;9.330;2023-07-31T01:22:16;98357.69;;;16.54;77.38
55604;BME280;41468;48.838;9.330;2023-07-31T01:25:05;98348.22;;;16.59;77.72
55604;BME280;41468;48.838;9.330;2023-07-31T01:27:40;98345.75;;;16.72;76.26
55604;BME280;41468;48.838;9.330;2023-07-31T01:30:11;98340.97;;;16.80;76.11
55604;BME280;41468;48.838;9.330;2023-07-31T01:32:42;98338.22;;;16.80;77.44
55604;BME280;41468;48.838;9.330;2023-07-31T01:35:10;98336.84;;;16.53;78.57
55604;BME280;41468;48.838;9.330;2023-07-31T01:37:46;98333.28;;;16.56;79.20
55604;BME280;41468;48.838;9.330;2023-07-31T01:40:12;98328.09;;;16.66;77.51
55604;BME280;41468;48.838;9.330;2023-07-31T01:42:39;98323.69;;;16.68;76.43
55604;BME280;41468;48.838;9.330;2023-07-31T01:45:06;98326.81;;;16.74;75.97
55604;BME280;41468;48.838;9.330;2023-07-31T01:47:33;98320.88;;;16.75;76.17
55604;BME280;41468;48.838;9.330;2023-07-31T01:50:00;98321.25;;;16.81;75.71
55604;BME280;41468;48.838;9.330;2023-07-31T01:52:27;98331.56;;;16.70;76.06
55604;BME280;41468;48.838;9.330;2023-07-31T01:54:53;98329.63;;;16.67;76.21
55604;BME280;41468;48.838;9.330;2023-07-31T01:57:20;98322.97;;;16.64;76.42
55604;BME280;41468;48.838;9.330;2023-07-31T01:59:47;98322.28;;;16.53;77.09
55604;BME280;41468;48.838;9.330;2023-07-31T02:02:14;98321.50;;;16.52;78.18
55604;BME280;41468;48.838;9.330;2023-07-31T02:04:41;98316.81;;;16.46;78.03
55604;BME280;41468;48.838;9.330;2023-07-31T02:07:07;98326.38;;;16.34;78.39
55604;BME280;41468;48.838;9.330;2023-07-31T02:09:34;98315.31;;;16.38;78.51
55604;BME280;41468;48.838;9.330;2023-07-31T02:12:01;98311.31;;;16.46;78.03
55604;BME280;41468;48.838;9.330;2023-07-31T02:14:28;98316.03;;;16.45;78.51
55604;BME280;41468;48.838;9.330;2023-07-31T02:16:54;98301.88;;;16.43;78.40
55604;BME280;41468;48.838;9.330;2023-07-31T02:19:21;98304.25;;;16.45;78.87
55604;BME280;41468;48.838;9.330;2023-07-31T02:21:48;98305.06;;;16.42;78.74
55604;BME280;41468;48.838;9.330;2023-07-31T02:24:14;98294.81;;;16.39;78.86
55604;BME280;41468;48.838;9.330;2023-07-31T02:26:41;98286.22;;;16.37;78.53
55604;BME280;41468;48.838;9.330;2023-07-31T02:29:08;98289.78;;;16.33;79.23
55604;BME280;41468;48.838;9.330;2023-07-31T02:31:35;98289.31;;;16.39;78.92
55604;BME280;41468;48.838;9.330;2023-07-31T02:34:02;98283.75;;;16.46;78.50
55604;BME280;41468;48.838;9.330;2023-07-31T02:36:29;98284.53;;;16.50;78.52
55604;BME280;41468;48.838;9.330;2023-07-31T02:38:56;98288.09;;;16.43;79.35
55604;BME280;41468;48.838;9.330;2023-07-31T02:41:22;98291.69;;;16.40;79.10
55604;BME280;41468;48.838;9.330;2023-07-31T02:43:49;98284.56;;;16.43;78.87
55604;BME280;41468;48.838;9.330;2023-07-31T02:46:16;98287.66;;;16.48;77.77
55604;BME280;41468;48.838;9.330;2023-07-31T02:48:43;98281.44;;;16.44;77.60
55604;BME280;41468;48.838;9.330;2023-07-31T02:51:09;98276.66;;;16.48;77.76
55604;BME280;41468;48.838;9.330;2023-07-31T02:53:43;98273.50;;;16.50;77.47
55604;BME280;41468;48.838;9.330;2023-07-31T02:56:10;98260.94;;;16.45;77.12
55604;BME280;41468;48.838;9.330;2023-07-31T02:58:36;98262.16;;;16.41;77.61
55604;BME280;41468;48.838;9.330;2023-07-31T03:01:03;98260.88;;;16.49;77.36
55604;BME280;41468;48.838;9.330;2023-07-31T03:03:30;98263.34;;;16.40;77.70
55604;BME280;41468;48.838;9.330;2023-07-31T03:05:57;98264.16;;;16.37;76.94
55604;BME280;41468;48.838;9.330;2023-07-31T03:08:24;98271.13;;;16.48;78.31
55604;BME280;41468;48.838;9.330;2023-07-31T03:10:51;98257.84;;;16.40;77.49
55604;BME280;41468;48.838;9.330;2023-07-31T03:13:17;98258.28;;;16.34;77.90
55604;BME280;41468;48.838;9.330;2023-07-31T03:15:44;98273.25;;;16.30;78.12
55604;BME280;41468;48.838;9.330;2023-07-31T03:18:11;98271.63;;;16.40;77.96
55604;BME280;41468;48.838;9.330;2023-07-31T03:20:42;98267.31;;;16.35;78.10
55604;BME280;41468;48.838;9.330;2023-07-31T03:23:10;98271.94;;;16.45;77.57
55604;BME280;41468;48.838;9.330;2023-07-31T03:25:37;98274.75;;;16.42;77.80
55604;BME280;41468;48.838;9.330;2023-07-31T03:28:04;98274.47;;;16.29;77.05
55604;BME280;41468;48.838;9.330;2023-07-31T03:30:31;98268.19;;;16.28;77.78
55604;BME280;41468;48.838;9.330;2023-07-31T03:33:14;98262.22;;;16.33;77.64
55604;BME280;41468;48.838;9.330;2023-07-31T03:35:41;98272.78;;;16.39;77.50
55604;BME280;41468;48.838;9.330;2023-07-31T03:38:07;98270.44;;;16.37;77.46
55604;BME280;41468;48.838;9.330;2023-07-31T03:40:37;98273.94;;;16.45;77.22
55604;BME280;41468;48.838;9.330;2023-07-31T03:43:05;98278.25;;;16.46;77.15
55604;BME280;41468;48.838;9.330;2023-07-31T03:45:31;98272.78;;;16.39;77.79
55604;BME280;41468;48.838;9.330;2023-07-31T03:47:58;98264.16;;;16.37;77.29
55604;BME280;41468;48.838;9.330;2023-07-31T03:50:25;98266.06;;;16.43;77.25
55604;BME280;41468;48.838;9.330;2023-07-31T03:52:52;98264.88;;;16.44;76.99
55604;BME280;41468;48.838;9.330;2023-07-31T03:55:19;98269.00;;;16.22;77.83
55604;BME280;41468;48.838;9.330;2023-07-31T03:57:46;98271.63;;;16.36;77.58
55604;BME280;41468;48.838;9.330;2023-07-31T04:00:13;98275.25;;;16.29;77.66
55604;BME280;41468;48.838;9.330;2023-07-31T04:02:40;98272.13;;;16.24;78.01
55604;BME280;41468;48.838;9.330;2023-07-31T04:05:11;98271.44;;;16.12;79.67
55604;BME280;41468;48.838;9.330;2023-07-31T04:07:38;98272.88;;;16.28;79.80
55604;BME280;41468;48.838;9.330;2023-07-31T04:10:05;98264.31;;;16.19;79.21
55604;BME280;41468;48.838;9.330;2023-07-31T04:12:32;98272.88;;;16.31;78.20
55604;BME280;41468;48.838;9.330;2023-07-31T04:14:58;98271.31;;;16.27;78.53
55604;BME280;41468;48.838;9.330;2023-07-31T04:17:25;98273.69;;;16.28;78.17
55604;BME280;41468;48.838;9.330;2023-07-31T04:19:52;98260.59;;;16.40;77.30
55604;BME280;41468;48.838;9.330;2023-07-31T04:22:19;98259.38;;;16.44;76.48
55604;BME280;41468;48.838;9.330;2023-07-31T04:24:46;98259.78;;;16.43;76.55
55604;BME280;41468;48.838;9.330;2023-07-31T04:27:13;98258.13;;;16.52;76.25
55604;BME280;41468;48.838;9.330;2023-07-31T04:29:39;98258.91;;;16.49;76.51
55604;BME280;41468;48.838;9.330;2023-07-31T04:32:08;98264.47;;;16.46;76.59
55604;BME280;41468;48.838;9.330;2023-07-31T04:34:35;98260.50;;;16.50;76.32
55604;BME280;41468;48.838;9.330;2023-07-31T04:37:02;98254.13;;;16.57;76.38
55604;BME280;41468;48.838;9.330;2023-07-31T04:39:29;98254.06;;;16.64;75.69
55604;BME280;41468;48.838;9.330;2023-07-31T04:41:56;98252.03;;;16.68;75.03
55604;BME280;41468;48.838;9.330;2023-07-31T04:44:23;98243.69;;;16.75;74.34
55604;BME280;41468;48.838;9.330;2023-07-31T04:46:49;98252.72;;;16.76;75.16
55604;BME280;41468;48.838;9.330;2023-07-31T04:49:16;98253.91;;;16.78;75.15
55604;BME280;41468;48.838;9.330;2023-07-31T04:51:43;98262.06;;;16.89;76.47
55604;BME280;41468;48.838;9.330;2023-07-31T04:54:10;98252.19;;;16.92;75.18
55604;BME280;41468;48.838;9.330;2023-07-31T04:56:39;98254.19;;;16.91;74.70
55604;BME280;41468;48.838;9.330;2023-07-31T04:59:06;98256.09;;;16.98;75.08
55604;BME280;41468;48.838;9.330;2023-07-31T05:01:33;98256.56;;;16.89;74.66
55604;BME280;41468;48.838;9.330;2023-07-31T05:03:59;98247.06;;;16.94;74.97
55604;BME280;41468;48.838;9.330;2023-07-31T05:06:26;98239.19;;;16.92;75.63
55604;BME280;41468;48.838;9.330;2023-07-31T05:08:53;98249.75;;;17.01;76.33
55604;BME280;41468;48.838;9.330;2023-07-31T05:11:20;98242.63;;;17.04;75.97
55604;BME280;41468;48.838;9.330;2023-07-31T05:13:47;98237.38;;;17.13;76.48
55604;BME280;41468;48.838;9.330;2023-07-31T05:16:18;98255.13;;;17.12;75.63
55604;BME280;41468;48.838;9.330;2023-07-31T05:18:45;98244.97;;;17.05;74.04
55604;BME280;41468;48.838;9.330;2023-07-31T05:21:11;98242.19;;;17.09;75.04
55604;BME280;41468;48.838;9.330;2023-07-31T05:23:38;98238.94;;;17.14;74.60
55604;BME280;41468;48.838;9.330;2023-07-31T05:26:06;98238.41;;;17.26;75.34
55604;BME280;41468;48.838;9.330;2023-07-31T05:28:34;98244.31;;;17.25;74.72
55604;BME280;41468;48.838;9.330;2023-07-31T05:31:11;98240.38;;;17.26;73.44
55604;BME280;41468;48.838;9.330;2023-07-31T05:33:38;98247.28;;;17.41;73.04
55604;BME280;41468;48.838;9.330;2023-07-31T05:36:05;98248.78;;;17.45;74.19
55604;BME280;41468;48.838;9.330;2023-07-31T05:38:32;98249.09;;;17.51;72.48
55604;BME280;41468;48.838;9.330;2023-07-31T05:41:03;98248.84;;;17.69;74.24
55604;BME280;41468;48.838;9.330;2023-07-31T05:43:34;98248.00;;;17.72;70.94
55604;BME280;41468;48.838;9.330;2023-07-31T05:46:01;98246.69;;;17.84;70.42
55604;BME280;41468;48.838;9.330;2023-07-31T05:48:31;98245.78;;;17.91;69.22
55604;BME280;41468;48.838;9.330;2023-07-31T05:50:58;98241.00;;;17.95;69.07
55604;BME280;41468;48.838;9.330;2023-07-31T05:53:25;98241.06;;;18.15;69.86
55604;BME280;41468;48.838;9.330;2023-07-31T05:55:53;98248.63;;;18.34;69.05
55604;BME280;41468;48.838;9.330;2023-07-31T05:58:20;98242.63;;;18.39;67.49
55604;BME280;41468;48.838;9.330;2023-07-31T06:00:47;98241.09;;;18.38;67.78
55604;BME280;41468;48.838;9.330;2023-07-31T06:03:13;98246.53;;;18.42;68.37
55604;BME280;41468;48.838;9.330;2023-07-31T06:05:40;98237.34;;;18.48;67.50
55604;BME280;41468;48.838;9.330;2023-07-31T06:08:07;98236.78;;;18.57;69.12
55604;BME280;41468;48.838;9.330;2023-07-31T06:10:38;98231.88;;;18.45;68.04
55604;BME280;41468;48.838;9.330;2023-07-31T06:13:05;98239.38;;;18.44;66.32
55604;BME280;41468;48.838;9.330;2023-07-31T06:15:32;98240.16;;;18.45;66.69
55604;BME280;41468;48.838;9.330;2023-07-31T06:17:59;98245.22;;;18.50;66.85
55604;BME280;41468;48.838;9.330;2023-07-31T06:20:28;98237.16;;;18.59;66.19
55604;BME280;41468;48.838;9.330;2023-07-31T06:22:55;98245.25;;;18.70;67.02
55604;BME280;41468;48.838;9.330;2023-07-31T06:25:22;98245.31;;;18.66;66.70
55604;BME280;41468;48.838;9.330;2023-07-31T06:27:49;98234.97;;;18.70;66.37
55604;BME280;41468;48.838;9.330;2023-07-31T06:30:16;98241.38;;;18.87;65.72
55604;BME280;41468;48.838;9.330;2023-07-31T06:32:42;98235.38;;;18.92;65.21
55604;BME280;41468;48.838;9.330;2023-07-31T06:35:10;98242.53;;;18.90;65.65
55604;BME280;41468;48.838;9.330;2023-07-31T06:37:36;98240.75;;;19.00;64.70
55604;BME280;41468;48.838;9.330;2023-07-31T06:40:07;98238.13;;;19.12;65.24
55604;BME280;41468;48.838;9.330;2023-07-31T06:42:35;98244.22;;;19.24;65.08
55604;BME280;41468;48.838;9.330;2023-07-31T06:45:02;98233.84;;;19.28;63.50
55604;BME280;41468;48.838;9.330;2023-07-31T06:47:29;98240.06;;;19.52;63.66
55604;BME280;41468;48.838;9.330;2023-07-31T06:49:56;98228.81;;;19.59;63.67
55604;BME280;41468;48.838;9.330;2023-07-31T06:52:23;98236.19;;;19.65;63.45
55604;BME280;41468;48.838;9.330;2023-07-31T06:55:09;98236.47;;;19.71;63.26
55604;BME280;41468;48.838;9.330;2023-07-31T06:57:44;98247.81;;;19.77;63.14
55604;BME280;41468;48.838;9.330;2023-07-31T07:00:16;98243.09;;;19.94;61.47
55604;BME280;41468;48.838;9.330;2023-07-31T07:02:43;98237.56;;;20.10;60.44
55604;BME280;41468;48.838;9.330;2023-07-31T07:05:10;98245.31;;;20.48;59.84
55604;BME280;41468;48.838;9.330;2023-07-31T07:07:37;98241.66;;;20.67;59.35
55604;BME280;41468;48.838;9.330;2023-07-31T07:10:04;98242.16;;;20.79;59.11
55604;BME280;41468;48.838;9.330;2023-07-31T07:12:37;98237.06;;;20.90;57.73
55604;BME280;41468;48.838;9.330;2023-07-31T07:15:04;98238.25;;;21.05;57.60
55604;BME280;41468;48.838;9.330;2023-07-31T07:17:31;98233.69;;;21.11;56.75
55604;BME280;41468;48.838;9.330;2023-07-31T07:19:59;98242.31;;;21.01;57.00
55604;BME280;41468;48.838;9.330;2023-07-31T07:22:26;98240.72;;;20.87;57.79
55604;BME280;41468;48.838;9.330;2023-07-31T07:24:54;98240.28;;;21.17;56.73
55604;BME280;41468;48.838;9.330;2023-07-31T07:27:21;98236.66;;;21.33;55.99
55604;BME280;41468;48.838;9.330;2023-07-31T07:29:50;98225.13;;;21.48;54.55
55604;BME280;41468;48.838;9.330;2023-07-31T07:32:17;98228.25;;;21.50;55.21
55604;BME280;41468;48.838;9.330;2023-07-31T07:34:44;98228.94;;;21.25;54.43
55604;BME280;41468;48.838;9.330;2023-07-31T07:37:11;98216.31;;;21.36;55.40
55604;BME280;41468;48.838;9.330;2023-07-31T07:39:38;98219.19;;;21.33;53.92
55604;BME280;41468;48.838;9.330;2023-07-31T07:42:05;98225.75;;;21.26;55.46
55604;BME280;41468;48.838;9.330;2023-07-31T07:44:31;98221.31;;;21.29;55.21
55604;BME280;41468;48.838;9.330;2023-07-31T07:46:58;98222.81;;;21.17;55.29
55604;BME280;41468;48.838;9.330;2023-07-31T07:49:25;98224.00;;;21.03;55.15
55604;BME280;41468;48.838;9.330;2023-07-31T07:51:52;98217.47;;;20.97;56.31
55604;BME280;41468;48.838;9.330;2023-07-31T07:54:19;98213.72;;;21.04;57.38
55604;BME280;41468;48.838;9.330;2023-07-31T07:56:47;98215.75;;;21.29;55.85
55604;BME280;41468;48.838;9.330;2023-07-31T07:59:14;98227.81;;;21.64;54.83
55604;BME280;41468;48.838;9.330;2023-07-31T08:01:41;98219.34;;;21.80;53.34
55604;BME280;41468;48.838;9.330;2023-07-31T08:04:08;98224.03;;;21.83;53.50
55604;BME280;41468;48.838;9.330;2023-07-31T08:06:35;98217.34;;;21.94;53.97
55604;BME280;41468;48.838;9.330;2023-07-31T08:09:02;98214.63;;;22.16;53.87
55604;BME280;41468;48.838;9.330;2023-07-31T08:11:33;98207.53;;;22.27;53.13
55604;BME280;41468;48.838;9.330;2023-07-31T08:13:59;98212.81;;;22.47;52.71
55604;BME280;41468;48.838;9.330;2023-07-31T08:16:26;98208.63;;;22.65;51.72
55604;BME280;41468;48.838;9.330;2023-07-31T08:18:53;98202.16;;;22.90;51.13
55604;BME280;41468;48.838;9.330;2023-07-31T08:21:21;98213.69;;;22.79;50.19
55604;BME280;41468;48.838;9.330;2023-07-31T08:23:48;98212.00;;;22.60;51.33
55604;BME280;41468;48.838;9.330;2023-07-31T08:26:16;98207.84;;;22.64;50.89
55604;BME280;41468;48.838;9.330;2023-07-31T08:28:43;98199.81;;;22.88;51.28
55604;BME280;41468;48.838;9.330;2023-07-31T08:31:10;98200.88;;;22.82;49.74
55604;BME280;41468;48.838;9.330;2023-07-31T08:33:38;98191.03;;;23.12;50.18
55604;BME280;41468;48.838;9.330;2023-07-31T08:36:06;98193.25;;;23.48;49.95
55604;BME280;41468;48.838;9.330;2023-07-31T08:38:32;98188.81;;;23.69;48.48
55604;BME280;41468;48.838;9.330;2023-07-31T08:40:59;98181.50;;;23.94;48.06
55604;BME280;41468;48.838;9.330;2023-07-31T08:43:27;98180.25;;;23.95;47.50
55604;BME280;41468;48.838;9.330;2023-07-31T08:45:54;98183.53;;;24.12;49.37
55604;BME280;41468;48.838;9.330;2023-07-31T08:48:22;98186.44;;;23.90;48.62
55604;BME280;41468;48.838;9.330;2023-07-31T08:50:51;98187.03;;;23.85;48.45
55604;BME280;41468;48.838;9.330;2023-07-31T08:53:18;98170.03;;;23.92;49.75
55604;BME280;41468;48.838;9.330;2023-07-31T08:55:46;98160.16;;;24.18;48.37
55604;BME280;41468;48.838;9.330;2023-07-31T08:58:13;98169.03;;;24.63;47.61
55604;BME280;41468;48.838;9.330;2023-07-31T09:00:42;98185.91;;;24.41;46.41
55604;BME280;41468;48.838;9.330;2023-07-31T09:03:21;98173.13;;;23.94;46.56
55604;BME280;41468;48.838;9.330;2023-07-31T09:05:50;98186.16;;;24.06;48.00
55604;BME280;41468;48.838;9.330;2023-07-31T09:08:19;98180.75;;;24.12;47.02
55604;BME280;41468;48.838;9.330;2023-07-31T09:10:47;98181.88;;;24.23;46.85
55604;BME280;41468;48.838;9.330;2023-07-31T09:13:15;98164.50;;;24.19;47.60
55604;BME280;41468;48.838;9.330;2023-07-31T09:15:45;98156.28;;;24.25;47.16
55604;BME280;41468;48.838;9.330;2023-07-31T09:18:13;98151.47;;;24.25;46.81
55604;BME280;41468;48.838;9.330;2023-07-31T09:20:43;98163.09;;;24.06;48.02
55604;BME280;41468;48.838;9.330;2023-07-31T09:23:12;98166.94;;;23.99;48.80
55604;BME280;41468;48.838;9.330;2023-07-31T09:25:43;98167.28;;;23.60;48.48
55604;BME280;41468;48.838;9.330;2023-07-31T09:28:14;98166.00;;;23.52;49.82
55604;BME280;41468;48.838;9.330;2023-07-31T09:30:49;98158.56;;;23.18;48.62
55604;BME280;41468;48.838;9.330;2023-07-31T09:33:18;98163.44;;;23.05;49.99
55604;BME280;41468;48.838;9.330;2023-07-31T09:35:45;98158.84;;;22.89;50.85
55604;BME280;41468;48.838;9.330;2023-07-31T09:38:15;98151.97;;;22.81;50.34
55604;BME280;41468;48.838;9.330;2023-07-31T09:40:45;98155.41;;;23.07;50.87
55604;BME280;41468;48.838;9.330;2023-07-31T09:43:16;98148.84;;;23.23;50.78
55604;BME280;41468;48.838;9.330;2023-07-31T09:45:44;98149.22;;;23.34;50.76
55604;BME280;41468;48.838;9.330;2023-07-31T09:48:13;98143.78;;;23.30;51.42
55604;BME280;41468;48.838;9.330;2023-07-31T09:50:47;98135.59;;;23.27;50.49
55604;BME280;41468;48.838;9.330;2023-07-31T09:53:16;98127.00;;;23.12;50.50
55604;BME280;41468;48.838;9.330;2023-07-31T09:55:43;98125.19;;;22.96;51.50
55604;BME280;41468;48.838;9.330;2023-07-31T09:58:11;98124.53;;;22.92;50.92
55604;BME280;41468;48.838;9.330;2023-07-31T10:00:39;98121.25;;;23.06;50.50
55604;BME280;41468;48.838;9.330;2023-07-31T10:03:08;98115.59;;;23.28;50.05
55604;BME280;41468;48.838;9.330;2023-07-31T10:05:36;98117.38;;;23.44;49.19
55604;BME280;41468;48.838;9.330;2023-07-31T10:08:06;98109.47;;;23.92;48.88
55604;BME280;41468;48.838;9.330;2023-07-31T10:10:35;98101.53;;;23.81;48.41
55604;BME280;41468;48.838;9.330;2023-07-31T10:13:14;98107.16;;;23.50;49.32
55604;BME280;41468;48.838;9.330;2023-07-31T10:15:42;98094.63;;;23.46;50.58
55604;BME280;41468;48.838;9.330;2023-07-31T10:18:11;98104.09;;;23.08;50.35
55604;BME280;41468;48.838;9.330;2023-07-31T10:20:40;98095.13;;;23.13;50.54
55604;BME280;41468;48.838;9.330;2023-07-31T10:23:07;98085.19;;;23.03;50.67
55604;BME280;41468;48.838;9.330;2023-07-31T10:25:34;98099.78;;;22.94;50.58
55604;BME280;41468;48.838;9.330;2023-07-31T10:28:01;98106.06;;;22.76;50.69
55604;BME280;41468;48.838;9.330;2023-07-31T10:30:30;98098.41;;;22.67;51.01
55604;BME280;41468;48.838;9.330;2023-07-31T10:32:59;98090.38;;;22.69;51.75
55604;BME280;41468;48.838;9.330;2023-07-31T10:35:27;98091.38;;;22.76;52.01
55604;BME280;41468;48.838;9.330;2023-07-31T10:37:54;98081.31;;;22.78;52.37
55604;BME280;41468;48.838;9.330;2023-07-31T10:40:26;98073.81;;;22.66;51.70
55604;BME280;41468;48.838;9.330;2023-07-31T10:42:54;98073.16;;;22.62;52.52
55604;BME280;41468;48.838;9.330;2023-07-31T10:48:04;98059.75;;;23.32;49.77
55604;BME280;41468;48.838;9.330;2023-07-31T10:50:32;98071.09;;;23.37;50.14
55604;BME280;41468;48.838;9.330;2023-07-31T10:53:03;98066.59;;;23.40;50.03
55604;BME280;41468;48.838;9.330;2023-07-31T10:55:32;98070.75;;;23.35;49.49
55604;BME280;41468;48.838;9.330;2023-07-31T11:00:36;98078.03;;;23.92;49.09
55604;BME280;41468;48.838;9.330;2023-07-31T11:03:08;98085.13;;;24.39;48.06
55604;BME280;41468;48.838;9.330;2023-07-31T11:05:41;98065.47;;;24.42;46.92
55604;BME280;41468;48.838;9.330;2023-07-31T11:13:39;98048.97;;;25.24;48.73
55604;BME280;41468;48.838;9.330;2023-07-31T11:16:06;98040.28;;;25.22;47.19
55604;BME280;41468;48.838;9.330;2023-07-31T11:18:33;98053.81;;;25.47;46.38
55604;BME280;41468;48.838;9.330;2023-07-31T11:20:59;98046.19;;;25.72;45.17
55604;BME280;41468;48.838;9.330;2023-07-31T11:23:26;98048.69;;;25.94;46.22
55604;BME280;41468;48.838;9.330;2023-07-31T11:25:59;98044.53;;;25.89;45.71
55604;BME280;41468;48.838;9.330;2023-07-31T11:28:26;98040.59;;;25.96;43.74
55604;BME280;41468;48.838;9.330;2023-07-31T11:30:55;98039.84;;;25.47;44.83
55604;BME280;41468;48.838;9.330;2023-07-31T11:33:34;98039.88;;;24.96;45.52
55604;BME280;41468;48.838;9.330;2023-07-31T11:36:01;98033.44;;;24.80;46.84
55604;BME280;41468;48.838;9.330;2023-07-31T11:38:29;98043.22;;;24.76;46.52
55604;BME280;41468;48.838;9.330;2023-07-31T11:41:01;98033.78;;;24.73;46.55
55604;BME280;41468;48.838;9.330;2023-07-31T11:43:30;98041.28;;;24.49;46.35
55604;BME280;41468;48.838;9.330;2023-07-31T11:46:02;98038.31;;;24.34;46.59
55604;BME280;41468;48.838;9.330;2023-07-31T11:48:31;98033.41;;;24.10;47.08
55604;BME280;41468;48.838;9.330;2023-07-31T11:51:03;98034.66;;;24.00;47.26
55604;BME280;41468;48.838;9.330;2023-07-31T11:53:49;98017.63;;;23.89;48.08
55604;BME280;41468;48.838;9.330;2023-07-31T11:56:27;98009.56;;;23.81;48.20
55604;BME280;41468;48.838;9.330;2023-07-31T11:58:59;98019.72;;;23.57;48.84
55604;BME280;41468;48.838;9.330;2023-07-31T12:01:27;98011.22;;;23.51;48.62
55604;BME280;41468;48.838;9.330;2023-07-31T12:03:57;98013.84;;;23.55;49.12
55604;BME280;41468;48.838;9.330;2023-07-31T12:06:36;98006.72;;;23.54;49.21
55604;BME280;41468;48.838;9.330;2023-07-31T12:09:04;98002.53;;;23.58;49.12
55604;BME280;41468;48.838;9.330;2023-07-31T12:11:43;97995.28;;;23.70;49.70
55604;BME280;41468;48.838;9.330;2023-07-31T12:14:41;98003.03;;;23.85;49.63
55604;BME280;41468;48.838;9.330;2023-07-31T12:17:08;97997.63;;;23.72;48.81
55604;BME280;41468;48.838;9.330;2023-07-31T12:19:37;97993.72;;;23.60;49.29
55604;BME280;41468;48.838;9.330;2023-07-31T12:22:11;97989.06;;;23.57;49.34
55604;BME280;41468;48.838;9.330;2023-07-31T12:24:39;97985.66;;;23.53;49.45
55604;BME280;41468;48.838;9.330;2023-07-31T12:27:14;97981.00;;;23.50;50.44
55604;BME280;41468;48.838;9.330;2023-07-31T12:29:42;97985.81;;;23.40;51.22
55604;BME280;41468;48.838;9.330;2023-07-31T12:32:20;97983.78;;;23.41;49.91
55604;BME280;41468;48.838;9.330;2023-07-31T12:34:47;97985.94;;;23.36;50.23
55604;BME280;41468;48.838;9.330;2023-07-31T12:37:14;97981.47;;;23.39;50.55
55604;BME280;41468;48.838;9.330;2023-07-31T12:39:41;97974.81;;;23.55;50.03
55604;BME280;41468;48.838;9.330;2023-07-31T12:42:08;97964.47;;;23.65;50.52
55604;BME280;41468;48.838;9.330;2023-07-31T12:44:35;97962.75;;;23.67;50.18
55604;BME280;41468;48.838;9.330;2023-07-31T12:47:01;97954.69;;;23.69;49.64
55604;BME280;41468;48.838;9.330;2023-07-31T12:49:28;97950.69;;;23.70;51.79
55604;BME280;41468;48.838;9.330;2023-07-31T12:51:55;97946.94;;;23.64;50.53
55604;BME280;41468;48.838;9.330;2023-07-31T12:54:22;97943.88;;;23.62;50.74
55604;BME280;41468;48.838;9.330;2023-07-31T12:56:48;97940.78;;;23.60;52.23
55604;BME280;41468;48.838;9.330;2023-07-31T12:59:15;97931.16;;;23.61;51.53
55604;BME280;41468;48.838;9.330;2023-07-31T13:01:42;97937.53;;;23.43;50.50
55604;BME280;41468;48.838;9.330;2023-07-31T13:04:15;97938.59;;;23.36;50.89
55604;BME280;41468;48.838;9.330;2023-07-31T13:06:41;97931.94;;;23.34;50.77
55604;BME280;41468;48.838;9.330;2023-07-31T13:09:08;97933.47;;;23.26;51.33
55604;BME280;41468;48.838;9.330;2023-07-31T13:11:35;97929.31;;;23.30;51.24
55604;BME280;41468;48.838;9.330;2023-07-31T13:14:02;97926.53;;;23.30;51.17
55604;BME280;41468;48.838;9.330;2023-07-31T13:16:29;97930.22;;;23.27;51.35
55604;BME280;41468;48.838;9.330;2023-07-31T13:18:56;97920.47;;;23.23;50.71
55604;BME280;41468;48.838;9.330;2023-07-31T13:21:23;97916.59;;;23.11;50.79
55604;BME280;41468;48.838;9.330;2023-07-31T13:23:49;97913.50;;;23.09;50.79
55604;BME280;41468;48.838;9.330;2023-07-31T13:26:22;97920.91;;;23.12;51.62
55604;BME280;41468;48.838;9.330;2023-07-31T13:28:49;97920.59;;;23.10;50.77
55604;BME280;41468;48.838;9.330;2023-07-31T13:31:15;97920.00;;;23.15;51.73
55604;BME280;41468;48.838;9.330;2023-07-31T13:33:42;97918.47;;;23.14;52.77
55604;BME280;41468;48.838;9.330;2023-07-31T13:36:10;97905.47;;;23.11;51.03
55604;BME280;41468;48.838;9.330;2023-07-31T13:38:37;97909.47;;;23.10;51.06